createdAt,value
2018-11-27T00:00:54.253Z,1.77
2018-11-27T00:03:23.771Z,1.78
2018-11-27T00:05:53.744Z,1.71
2018-11-27T00:08:23.163Z,1.66
2018-11-27T00:10:52.377Z,1.67
2018-11-27T00:13:22.469Z,1.78
2018-11-27T00:15:52.022Z,1.72
2018-11-27T00:18:21.391Z,1.65
2018-11-27T00:20:50.707Z,1.52
2018-11-27T00:23:21.104Z,1.60
2018-11-27T00:25:50.501Z,1.71
2018-11-27T00:28:19.943Z,1.67
2018-11-27T00:30:49.367Z,1.72
2018-11-27T00:33:18.835Z,1.71
2018-11-27T00:35:49.853Z,1.73
2018-11-27T00:38:19.232Z,1.70
2018-11-27T00:40:48.881Z,1.74
2018-11-27T00:43:18.913Z,1.53
2018-11-27T00:45:48.469Z,1.45
2018-11-27T00:48:17.922Z,1.58
2018-11-27T00:50:47.946Z,1.66
2018-11-27T00:53:19.560Z,1.74
2018-11-27T00:55:48.839Z,1.76
2018-11-27T00:58:18.674Z,1.70
2018-11-27T01:00:48.011Z,1.78
2018-11-27T01:03:17.580Z,1.72
2018-11-27T01:05:48.931Z,1.70
2018-11-27T01:08:19.997Z,1.69
2018-11-27T01:10:51.246Z,1.61
2018-11-27T01:13:21.362Z,1.58
2018-11-27T01:15:51.097Z,1.64
2018-11-27T01:18:20.991Z,1.55
2018-11-27T01:20:51.425Z,1.61
2018-11-27T01:23:20.880Z,1.64
2018-11-27T01:25:52.245Z,1.66
2018-11-27T01:28:21.532Z,1.66
2018-11-27T01:30:50.785Z,1.47
2018-11-27T01:33:19.952Z,1.37
2018-11-27T01:35:49.369Z,1.49
2018-11-27T01:38:19.277Z,1.51
2018-11-27T01:40:48.596Z,1.61
2018-11-27T01:43:17.816Z,1.59
2018-11-27T01:45:47.074Z,1.65
2018-11-27T01:48:16.437Z,1.63
2018-11-27T01:50:46.195Z,1.62
2018-11-27T01:53:15.543Z,1.52
2018-11-27T01:55:45.293Z,1.55
2018-11-27T01:58:15.716Z,1.57
2018-11-27T02:00:45.757Z,1.60
2018-11-27T02:03:16.153Z,1.61
2018-11-27T02:05:45.492Z,1.59
2018-11-27T02:08:16.066Z,1.61
2018-11-27T02:10:46.410Z,1.56
2018-11-27T02:13:18.209Z,1.54
2018-11-27T02:15:47.525Z,1.55
2018-11-27T02:18:16.921Z,1.57
2018-11-27T02:20:48.208Z,1.65
2018-11-27T02:23:18.456Z,1.64
2018-11-27T02:25:48.492Z,1.61
2018-11-27T02:28:17.895Z,1.60
2018-11-27T02:30:47.816Z,1.48
2018-11-27T02:33:17.852Z,1.51
2018-11-27T02:35:48.192Z,1.56
2018-11-27T02:38:17.619Z,1.55
2018-11-27T02:40:46.969Z,1.52
2018-11-27T02:43:17.144Z,1.50
2018-11-27T02:45:46.598Z,1.48
2018-11-27T02:48:15.909Z,1.52
2018-11-27T02:50:45.403Z,1.53
2018-11-27T02:53:14.778Z,1.57
2018-11-27T02:55:44.861Z,1.57
2018-11-27T02:58:15.142Z,1.64
2018-11-27T03:00:45.157Z,1.59
2018-11-27T03:03:14.587Z,1.57
2018-11-27T03:05:44.002Z,1.58
2018-11-27T03:08:13.355Z,1.62
2018-11-27T03:10:43.717Z,1.65
2018-11-27T03:13:13.992Z,1.64
2018-11-27T03:15:43.323Z,1.71
2018-11-27T03:18:12.690Z,1.65
2018-11-27T03:20:42.149Z,1.66
2018-11-27T03:23:11.402Z,1.64
2018-11-27T03:25:40.659Z,1.64
2018-11-27T03:28:10.815Z,1.65
2018-11-27T03:30:40.145Z,1.61
2018-11-27T03:33:10.454Z,1.67
2018-11-27T03:35:40.451Z,1.64
2018-11-27T03:38:09.791Z,1.63
2018-11-27T03:40:39.251Z,1.57
2018-11-27T03:43:09.721Z,1.64
2018-11-27T03:45:39.127Z,1.59
2018-11-27T03:48:10.783Z,1.56
2018-11-27T03:50:40.984Z,1.47
2018-11-27T03:53:11.481Z,1.50
2018-11-27T03:55:40.861Z,1.56
2018-11-27T03:58:10.805Z,1.65
2018-11-27T04:00:41.602Z,1.50
2018-11-27T04:03:13.191Z,1.56
2018-11-27T04:05:43.311Z,1.59
2018-11-27T04:08:14.167Z,1.65
2018-11-27T04:10:43.809Z,1.68
2018-11-27T04:13:13.711Z,1.67
2018-11-27T04:15:43.946Z,1.69
2018-11-27T04:18:14.246Z,1.57
2018-11-27T04:20:43.365Z,1.51
2018-11-27T04:23:12.740Z,1.54
2018-11-27T04:25:42.233Z,1.54
2018-11-27T04:28:13.825Z,1.47
2018-11-27T04:30:43.698Z,1.49
2018-11-27T04:33:15.111Z,1.55
2018-11-27T04:35:44.363Z,1.55
2018-11-27T04:38:14.709Z,1.54
2018-11-27T04:40:44.134Z,1.54
2018-11-27T04:43:14.049Z,1.57
2018-11-27T04:45:44.078Z,1.62
2018-11-27T04:48:14.025Z,1.66
2018-11-27T04:50:43.559Z,1.63
2018-11-27T04:53:13.550Z,1.70
2018-11-27T04:55:43.024Z,1.67
2018-11-27T04:58:13.674Z,1.63
2018-11-27T05:00:43.335Z,1.67
2018-11-27T05:03:14.224Z,1.67
2018-11-27T05:05:44.172Z,1.62
2018-11-27T05:08:13.457Z,1.66
2018-11-27T05:10:42.970Z,1.63
2018-11-27T05:13:14.647Z,1.63
2018-11-27T05:15:44.583Z,1.62
2018-11-27T05:18:14.628Z,1.61
2018-11-27T05:20:45.108Z,1.62
2018-11-27T05:23:14.628Z,1.62
2018-11-27T05:25:44.094Z,1.65
2018-11-27T05:28:15.098Z,1.61
2018-11-27T05:30:46.586Z,1.63
2018-11-27T05:33:16.000Z,1.57
2018-11-27T05:35:45.286Z,1.58
2018-11-27T05:38:15.198Z,1.55
2018-11-27T05:40:44.709Z,1.43
2018-11-27T05:43:14.060Z,1.46
2018-11-27T05:45:43.824Z,1.46
2018-11-27T05:48:13.287Z,1.56
2018-11-27T05:50:42.547Z,1.58
2018-11-27T05:53:11.854Z,1.58
2018-11-27T05:55:42.467Z,1.51
2018-11-27T05:58:12.511Z,1.54
2018-11-27T06:00:41.781Z,1.54
2018-11-27T06:03:12.496Z,1.57
2018-11-27T06:05:41.860Z,1.54
2018-11-27T06:08:11.245Z,1.56
2018-11-27T06:10:40.627Z,1.51
2018-11-27T06:13:09.973Z,1.39
2018-11-27T06:15:42.549Z,1.45
2018-11-27T06:18:13.602Z,1.51
2018-11-27T06:20:43.123Z,1.46
2018-11-27T06:23:13.256Z,1.49
2018-11-27T06:25:43.646Z,1.40
2018-11-27T06:28:13.873Z,1.44
2018-11-27T06:30:43.810Z,1.44
2018-11-27T06:33:13.173Z,1.41
2018-11-27T06:35:44.794Z,1.46
2018-11-27T06:38:14.723Z,1.35
2018-11-27T06:40:44.264Z,1.36
2018-11-27T06:43:15.036Z,1.40
2018-11-27T06:45:45.403Z,1.51
2018-11-27T06:48:16.533Z,1.44
2018-11-27T06:50:46.666Z,1.58
2018-11-27T06:53:16.794Z,1.63
2018-11-27T06:55:46.298Z,1.48
2018-11-27T06:58:15.715Z,1.49
2018-11-27T07:00:45.935Z,1.48
2018-11-27T07:03:15.572Z,1.54
2018-11-27T07:05:45.490Z,1.57
2018-11-27T07:08:15.023Z,1.57
2018-11-27T07:10:49.063Z,1.62
2018-11-27T07:13:23.429Z,1.63
2018-11-27T07:15:52.967Z,1.63
2018-11-27T07:18:22.395Z,1.69
2018-11-27T07:20:53.029Z,1.63
2018-11-27T07:23:22.488Z,1.61
2018-11-27T07:25:52.032Z,1.63
2018-11-27T07:28:21.626Z,1.68
2018-11-27T07:30:51.080Z,1.74
2018-11-27T07:33:20.516Z,1.74
2018-11-27T07:35:50.902Z,1.66
2018-11-27T07:38:20.316Z,1.63
2018-11-27T07:40:49.523Z,1.70
2018-11-27T07:43:19.764Z,1.73
2018-11-27T07:45:54.949Z,1.76
2018-11-27T07:48:19.673Z,1.70
2018-11-27T07:50:49.324Z,1.72
2018-11-27T07:53:19.885Z,1.78
2018-11-27T07:55:49.358Z,1.73
2018-11-27T07:58:21.614Z,1.84
2018-11-27T08:00:51.799Z,1.66
2018-11-27T08:03:22.593Z,1.86
2018-11-27T08:05:55.093Z,1.93
2018-11-27T08:08:25.075Z,1.94
2018-11-27T08:10:54.757Z,1.83
2018-11-27T08:13:25.574Z,1.78
2018-11-27T08:15:56.597Z,1.82
2018-11-27T08:18:26.138Z,1.89
2018-11-27T08:20:56.794Z,1.90
2018-11-27T08:23:26.913Z,1.86
2018-11-27T08:25:57.699Z,1.83
2018-11-27T08:28:27.308Z,1.88
2018-11-27T08:30:56.670Z,1.88
2018-11-27T08:33:26.089Z,1.87
2018-11-27T08:35:55.487Z,1.94
2018-11-27T08:38:26.447Z,1.94
2018-11-27T08:40:56.535Z,1.90
2018-11-27T08:43:26.910Z,1.94
2018-11-27T08:45:57.056Z,1.96
2018-11-27T08:48:27.754Z,1.97
2018-11-27T08:50:57.971Z,2.01
2018-11-27T08:53:27.263Z,2.09
2018-11-27T08:55:56.627Z,2.29
2018-11-27T08:58:26.028Z,2.28
2018-11-27T09:00:55.619Z,2.32
2018-11-27T09:03:27.134Z,2.34
2018-11-27T09:05:56.557Z,2.30
2018-11-27T09:08:26.881Z,2.29
2018-11-27T09:10:56.666Z,2.45
2018-11-27T09:13:26.974Z,2.49
2018-11-27T09:16:03.935Z,2.54
2018-11-27T09:18:33.344Z,2.55
2018-11-27T09:21:04.442Z,2.62
2018-11-27T09:23:34.745Z,2.65
2018-11-27T09:26:04.975Z,2.76
2018-11-27T09:28:35.902Z,2.79
2018-11-27T09:31:06.431Z,2.75
2018-11-27T09:33:35.834Z,2.82
2018-11-27T09:36:07.034Z,2.76
2018-11-27T09:38:37.561Z,2.73
2018-11-27T09:41:07.966Z,2.67
2018-11-27T09:43:37.412Z,2.67
2018-11-27T09:46:08.293Z,2.65
2018-11-27T09:48:37.931Z,2.77
2018-11-27T09:51:07.260Z,2.61
2018-11-27T09:53:36.712Z,2.64
2018-11-27T09:56:06.332Z,2.67
2018-11-27T09:58:36.965Z,2.64
2018-11-27T10:01:06.907Z,2.63
2018-11-27T10:03:36.425Z,2.59
2018-11-27T10:06:06.453Z,2.58
2018-11-27T10:08:37.009Z,2.67
2018-11-27T10:11:06.678Z,2.71
2018-11-27T10:13:37.058Z,2.70
2018-11-27T10:16:08.536Z,2.82
2018-11-27T10:18:38.503Z,2.77
2018-11-27T10:21:08.664Z,2.73
2018-11-27T10:23:38.155Z,2.77
2018-11-27T10:26:08.325Z,2.75
2018-11-27T10:28:37.727Z,2.74
2018-11-27T10:31:07.254Z,2.69
2018-11-27T10:33:37.335Z,2.82
2018-11-27T10:36:07.011Z,2.76
2018-11-27T10:38:38.269Z,2.85
2018-11-27T10:41:09.275Z,2.87
2018-11-27T10:43:39.455Z,2.86
2018-11-27T10:46:09.869Z,2.83
2018-11-27T10:48:40.787Z,2.78
2018-11-27T10:51:10.405Z,2.76
2018-11-27T10:53:40.801Z,2.84
2018-11-27T10:56:11.300Z,2.89
2018-11-27T10:58:40.685Z,2.82
2018-11-27T11:01:15.945Z,2.98
2018-11-27T11:03:45.395Z,3.01
2018-11-27T11:06:14.735Z,2.99
2018-11-27T11:08:44.330Z,3.09
2018-11-27T11:11:13.709Z,3.09
2018-11-27T11:13:43.335Z,3.03
2018-11-27T11:16:13.959Z,2.92
2018-11-27T11:18:44.549Z,2.81
2018-11-27T11:21:13.966Z,2.98
2018-11-27T11:23:44.206Z,3.01
2018-11-27T11:26:13.764Z,2.97
2018-11-27T11:28:43.246Z,2.94
2018-11-27T11:31:13.957Z,2.91
2018-11-27T11:33:43.381Z,3.10
2018-11-27T11:36:13.939Z,3.13
2018-11-27T11:38:45.463Z,3.30
2018-11-27T11:41:14.903Z,3.20
2018-11-27T11:43:44.203Z,3.30
2018-11-27T11:46:14.673Z,3.34
2018-11-27T11:48:45.559Z,3.34
2018-11-27T11:51:15.807Z,3.26
2018-11-27T11:53:46.165Z,3.45
2018-11-27T11:56:16.465Z,3.53
2018-11-27T11:58:45.817Z,3.07
2018-11-27T12:01:15.338Z,3.16
2018-11-27T12:03:45.048Z,3.12
2018-11-27T12:06:14.534Z,3.18
2018-11-27T12:08:44.437Z,3.06
2018-11-27T12:11:14.354Z,3.11
2018-11-27T12:13:45.424Z,3.26
2018-11-27T12:16:16.851Z,3.22
2018-11-27T12:18:46.896Z,3.29
2018-11-27T12:21:16.342Z,3.40
2018-11-27T12:23:45.650Z,3.14
2018-11-27T12:26:15.247Z,3.28
2018-11-27T12:28:44.870Z,3.36
2018-11-27T12:31:14.319Z,3.43
2018-11-27T12:33:43.515Z,3.55
2018-11-27T12:36:12.637Z,3.62
2018-11-27T12:38:41.712Z,3.62
2018-11-27T12:41:10.850Z,3.66
2018-11-27T12:43:39.920Z,3.45
2018-11-27T12:46:09.020Z,3.41
2018-11-27T12:48:38.058Z,3.45
2018-11-27T12:51:08.701Z,3.40
2018-11-27T12:53:38.368Z,3.30
2018-11-27T12:56:07.667Z,3.31
2018-11-27T12:58:37.041Z,3.30
2018-11-27T13:01:09.473Z,3.27
2018-11-27T13:03:37.490Z,3.39
2018-11-27T13:06:07.288Z,3.48
2018-11-27T13:08:36.392Z,3.46
2018-11-27T13:11:11.360Z,3.49
2018-11-27T13:13:35.635Z,3.48
2018-11-27T13:16:04.813Z,3.32
2018-11-27T13:18:34.024Z,3.13
2018-11-27T13:21:03.245Z,3.12
2018-11-27T13:23:32.414Z,3.18
2018-11-27T13:26:01.707Z,3.29
2018-11-27T13:28:30.850Z,3.36
2018-11-27T13:31:03.999Z,3.34
2018-11-27T13:33:48.985Z,3.36
2018-11-27T13:36:18.138Z,3.34
2018-11-27T13:38:47.223Z,3.31
2018-11-27T13:41:16.360Z,3.22
2018-11-27T13:43:45.557Z,3.21
2018-11-27T13:46:17.036Z,3.18
2018-11-27T13:48:46.333Z,3.15
2018-11-27T13:51:15.492Z,3.12
2018-11-27T13:53:44.731Z,3.05
2018-11-27T13:56:13.764Z,3.02
2018-11-27T13:58:42.840Z,2.99
2018-11-27T14:01:11.919Z,2.94
2018-11-27T14:03:40.924Z,3.02
2018-11-27T14:06:09.920Z,3.04
2018-11-27T14:08:39.088Z,2.97
2018-11-27T14:11:08.128Z,3.00
2018-11-27T14:13:37.412Z,3.02
2018-11-27T14:16:06.784Z,3.04
2018-11-27T14:18:35.880Z,2.89
2018-11-27T14:21:05.346Z,2.78
2018-11-27T14:23:35.405Z,2.84
2018-11-27T14:26:04.482Z,2.88
2018-11-27T14:28:33.586Z,2.81
2018-11-27T14:31:03.361Z,2.70
2018-11-27T14:33:32.548Z,2.76
2018-11-27T14:36:01.671Z,2.72
2018-11-27T14:38:30.879Z,2.68
2018-11-27T14:40:59.991Z,2.48
2018-11-27T14:43:29.141Z,2.36
2018-11-27T14:45:58.317Z,2.45
2018-11-27T14:48:27.458Z,2.44
2018-11-27T14:50:56.647Z,2.50
2018-11-27T14:53:25.870Z,2.49
2018-11-27T14:55:55.067Z,2.50
2018-11-27T14:58:24.189Z,2.52
2018-11-27T15:00:53.407Z,2.52
2018-11-27T15:03:22.484Z,2.54
2018-11-27T15:05:51.645Z,2.53
2018-11-27T15:08:21.344Z,2.55
2018-11-27T15:10:50.471Z,2.43
2018-11-27T15:13:19.677Z,2.44
2018-11-27T15:15:48.900Z,2.40
2018-11-27T15:18:18.892Z,2.36
2018-11-27T15:20:51.681Z,2.26
2018-11-27T15:23:20.816Z,2.11
2018-11-27T15:25:49.899Z,2.16
2018-11-27T15:28:19.194Z,2.19
2018-11-27T15:30:48.259Z,2.22
2018-11-27T15:33:18.759Z,2.34
2018-11-27T15:35:46.707Z,2.30
2018-11-27T15:38:16.404Z,2.18
2018-11-27T15:40:45.657Z,2.38
2018-11-27T15:43:15.701Z,2.30
2018-11-27T15:45:44.810Z,2.22
2018-11-27T15:48:13.854Z,2.16
2018-11-27T15:50:43.019Z,2.23
2018-11-27T15:53:12.098Z,2.14
2018-11-27T15:55:41.418Z,2.11
2018-11-27T15:58:12.571Z,2.13
2018-11-27T16:00:42.459Z,2.13
2018-11-27T16:03:13.084Z,2.03
2018-11-27T16:05:46.408Z,2.11
2018-11-27T16:08:17.060Z,2.02
2018-11-27T16:10:46.285Z,2.08
2018-11-27T16:13:15.519Z,2.14
2018-11-27T16:15:44.645Z,2.18
2018-11-27T16:18:14.559Z,2.11
2018-11-27T16:20:44.558Z,2.10
2018-11-27T16:23:15.268Z,2.02
2018-11-27T16:25:44.713Z,1.98
2018-11-27T16:28:14.277Z,2.01
2018-11-27T16:30:43.730Z,1.90
2018-11-27T16:33:13.626Z,1.85
2018-11-27T16:35:43.995Z,1.91
2018-11-27T16:38:13.677Z,1.98
2018-11-27T16:40:43.917Z,1.94
2018-11-27T16:43:14.523Z,1.93
2018-11-27T16:45:43.878Z,1.84
2018-11-27T16:48:14.342Z,1.83
2018-11-27T16:50:44.500Z,1.98
2018-11-27T16:53:16.439Z,1.91
2018-11-27T16:55:45.713Z,1.82
2018-11-27T16:58:15.606Z,1.79
2018-11-27T17:00:44.848Z,1.84
2018-11-27T17:03:13.867Z,1.88
2018-11-27T17:05:45.390Z,1.87
2018-11-27T17:08:14.647Z,1.91
2018-11-27T17:10:45.165Z,1.88
2018-11-27T17:13:15.388Z,1.85
2018-11-27T17:15:44.633Z,1.85
2018-11-27T17:18:14.374Z,1.85
2018-11-27T17:20:44.904Z,1.82
2018-11-27T17:23:15.516Z,1.86
2018-11-27T17:25:44.930Z,1.85
2018-11-27T17:28:21.867Z,1.85
2018-11-27T17:31:21.473Z,1.78
2018-11-27T17:34:10.080Z,1.77
2018-11-27T17:36:40.215Z,1.85
2018-11-27T17:39:12.643Z,1.89
2018-11-27T17:41:43.056Z,1.89
2018-11-27T17:44:14.645Z,1.84
2018-11-27T17:46:44.538Z,1.81
2018-11-27T17:49:13.860Z,1.84
2018-11-27T17:51:43.950Z,1.84
2018-11-27T17:54:13.496Z,1.79
2018-11-27T17:56:45.046Z,1.73
2018-11-27T17:59:15.260Z,1.76
2018-11-27T18:01:46.077Z,1.76
2018-11-27T18:04:15.844Z,1.69
2018-11-27T18:06:45.975Z,1.70
2018-11-27T18:09:16.026Z,1.74
2018-11-27T18:11:48.322Z,1.76
2018-11-27T18:14:17.698Z,1.76
2018-11-27T18:16:47.307Z,1.76
2018-11-27T18:19:16.955Z,1.72
2018-11-27T18:21:47.230Z,1.70
2018-11-27T18:24:18.027Z,1.70
2018-11-27T18:26:48.783Z,1.78
2018-11-27T18:29:19.418Z,1.63
2018-11-27T18:31:49.456Z,1.67
2018-11-27T18:34:19.227Z,1.60
2018-11-27T18:36:49.346Z,1.60
2018-11-27T18:39:19.999Z,1.71
2018-11-27T18:41:50.601Z,1.71
2018-11-27T18:44:19.959Z,1.69
2018-11-27T18:46:51.048Z,1.63
2018-11-27T18:49:20.639Z,1.58
2018-11-27T18:51:50.192Z,1.51
2018-11-27T18:54:19.772Z,1.51
2018-11-27T18:56:52.029Z,1.64
2018-11-27T18:59:23.542Z,1.53
2018-11-27T19:01:53.697Z,1.61
2018-11-27T19:04:23.386Z,1.61
2018-11-27T19:06:53.297Z,1.57
2018-11-27T19:09:23.850Z,1.66
2018-11-27T19:11:53.797Z,1.64
2018-11-27T19:14:24.504Z,1.63
2018-11-27T19:16:55.535Z,1.58
2018-11-27T19:19:25.898Z,1.54
2018-11-27T19:21:55.481Z,1.58
2018-11-27T19:24:25.560Z,1.52
2018-11-27T19:26:55.563Z,1.45
2018-11-27T19:29:25.674Z,1.34
2018-11-27T19:31:56.836Z,1.45
2018-11-27T19:34:26.934Z,1.46
2018-11-27T19:36:57.100Z,1.54
2018-11-27T19:39:27.256Z,1.53
2018-11-27T19:41:58.171Z,1.49
2018-11-27T19:44:27.658Z,1.51
2018-11-27T19:46:57.119Z,1.48
2018-11-27T19:49:27.442Z,1.49
2018-11-27T19:51:58.053Z,1.45
2018-11-27T19:54:27.529Z,1.44
2018-11-27T19:56:57.451Z,1.50
2018-11-27T19:59:30.091Z,1.29
2018-11-27T20:01:59.964Z,1.25
2018-11-27T20:04:29.397Z,1.30
2018-11-27T20:07:04.263Z,1.35
2018-11-27T20:09:33.708Z,1.35
2018-11-27T20:12:03.744Z,1.29
2018-11-27T20:14:33.430Z,1.30
2018-11-27T20:17:05.180Z,1.34
2018-11-27T20:19:35.203Z,1.32
2018-11-27T20:22:05.464Z,1.36
2018-11-27T20:24:35.678Z,1.30
2018-11-27T20:27:05.939Z,1.30
2018-11-27T20:29:37.343Z,1.30
2018-11-27T20:32:08.409Z,1.21
2018-11-27T20:34:40.904Z,1.24
2018-11-27T20:37:12.305Z,1.25
2018-11-27T20:39:43.322Z,1.31
2018-11-27T20:42:13.214Z,1.13
2018-11-27T20:44:42.964Z,1.11
2018-11-27T20:47:13.950Z,1.10
2018-11-27T20:49:44.330Z,1.15
2018-11-27T20:52:13.810Z,1.20
2018-11-27T20:54:46.985Z,1.24
2018-11-27T20:57:18.102Z,1.24
2018-11-27T20:59:48.201Z,1.28
2018-11-27T21:02:18.074Z,1.17
2018-11-27T21:04:47.815Z,1.18
2018-11-27T21:07:18.358Z,1.19
2018-11-27T21:09:48.283Z,1.13
2018-11-27T21:12:17.659Z,1.06
2018-11-27T21:14:47.037Z,0.98
2018-11-27T21:17:16.583Z,1.08
2018-11-27T21:19:45.998Z,1.02
2018-11-27T21:22:15.482Z,1.10
2018-11-27T21:24:44.816Z,1.07
2018-11-27T21:27:14.322Z,1.02
2018-11-27T21:29:43.877Z,1.03
2018-11-27T21:32:14.284Z,1.09
2018-11-27T21:34:44.587Z,1.03
2018-11-27T21:37:14.116Z,0.92
2018-11-27T21:39:43.456Z,0.90
2018-11-27T21:42:13.025Z,1.00
2018-11-27T21:44:42.547Z,0.82
2018-11-27T21:47:11.945Z,0.62
2018-11-27T21:49:42.102Z,0.73
2018-11-27T21:52:12.285Z,0.78
2018-11-27T21:54:41.793Z,0.55
2018-11-27T21:57:10.867Z,0.49
2018-11-27T21:59:39.997Z,0.43
2018-11-27T22:02:09.208Z,0.39
2018-11-27T22:04:38.237Z,0.43
2018-11-27T22:07:07.319Z,0.50
2018-11-27T22:09:36.362Z,0.39
2018-11-27T22:12:05.499Z,0.47
2018-11-27T22:14:34.634Z,0.54
2018-11-27T22:17:03.624Z,0.49
2018-11-27T22:19:32.789Z,0.44
2018-11-27T22:22:01.921Z,0.44
2018-11-27T22:24:30.917Z,0.36
2018-11-27T22:26:59.976Z,0.44
2018-11-27T22:29:29.130Z,0.44
2018-11-27T22:31:58.244Z,0.45
2018-11-27T22:34:33.740Z,0.39
2018-11-27T22:37:03.258Z,0.33
2018-11-27T22:39:32.750Z,0.30
2018-11-27T22:42:02.188Z,0.36
2018-11-27T22:44:31.472Z,0.34
2018-11-27T22:47:00.744Z,0.31
2018-11-27T22:49:30.156Z,0.32
2018-11-27T22:51:59.606Z,0.32
2018-11-27T22:54:28.838Z,0.29
2018-11-27T22:56:58.262Z,0.25
2018-11-27T22:59:27.705Z,0.26
2018-11-27T23:01:57.007Z,0.27
2018-11-27T23:04:26.242Z,0.20
2018-11-27T23:06:55.619Z,0.20
2018-11-27T23:09:24.855Z,0.16
2018-11-27T23:11:54.366Z,0.15
2018-11-27T23:14:23.842Z,0.09
2018-11-27T23:16:53.299Z,0.15
2018-11-27T23:19:22.380Z,0.12
2018-11-27T23:21:51.480Z,0.06
2018-11-27T23:24:20.456Z,0.04
2018-11-27T23:26:49.520Z,0.05
2018-11-27T23:29:18.519Z,0.05
2018-11-27T23:31:47.652Z,0.08
2018-11-27T23:34:17.101Z,0.06
2018-11-27T23:36:46.607Z,-0.01
2018-11-27T23:39:15.683Z,0.00
2018-11-27T23:41:45.821Z,-0.08
2018-11-27T23:44:15.013Z,-0.24
2018-11-27T23:46:44.417Z,-0.25
2018-11-27T23:49:14.466Z,-0.29
2018-11-27T23:51:45.180Z,-0.32
2018-11-27T23:54:13.626Z,-0.38
2018-11-27T23:56:48.602Z,-0.40
2018-11-27T23:59:13.483Z,-0.41
